createdAt,value
2023-04-17T00:02:25.706Z,10.55
2023-04-17T00:04:53.652Z,11.07
2023-04-17T00:07:22.481Z,9.27
2023-04-17T00:09:49.250Z,9.32
2023-04-17T00:12:16.049Z,8.93
2023-04-17T00:14:42.669Z,10.75
2023-04-17T00:17:09.586Z,9.07
2023-04-17T00:19:36.227Z,9.70
2023-04-17T00:22:02.778Z,9.63
2023-04-17T00:24:29.371Z,12.32
2023-04-17T00:26:57.178Z,10.02
2023-04-17T00:29:23.902Z,9.73
2023-04-17T00:31:50.571Z,10.25
2023-04-17T00:34:17.185Z,10.02
2023-04-17T00:36:43.774Z,10.05
2023-04-17T00:39:10.794Z,10.15
2023-04-17T00:41:37.623Z,10.70
2023-04-17T00:44:04.234Z,9.73
2023-04-17T00:46:31.317Z,9.88
2023-04-17T00:48:58.020Z,10.57
2023-04-17T00:51:24.698Z,10.95
2023-04-17T00:53:51.599Z,11.07
2023-04-17T00:56:18.238Z,10.07
2023-04-17T00:58:44.857Z,10.40
2023-04-17T01:01:11.584Z,10.55
2023-04-17T01:03:38.517Z,10.98
2023-04-17T01:06:05.841Z,10.82
2023-04-17T01:08:40.904Z,11.18
2023-04-17T01:11:08.124Z,10.82
2023-04-17T01:13:34.902Z,10.45
2023-04-17T01:16:01.589Z,10.73
2023-04-17T01:18:28.259Z,10.85
2023-04-17T01:20:56.013Z,10.85
2023-04-17T01:23:22.692Z,11.77
2023-04-17T01:25:51.139Z,11.15
2023-04-17T01:28:18.642Z,11.48
2023-04-17T01:30:45.236Z,11.30
2023-04-17T01:33:12.074Z,11.70
2023-04-17T01:35:38.641Z,9.80
2023-04-17T01:38:05.327Z,11.20
2023-04-17T01:40:32.367Z,12.02
2023-04-17T01:42:58.945Z,10.57
2023-04-17T01:45:25.516Z,9.80
2023-04-17T01:47:52.200Z,10.52
2023-04-17T01:50:18.800Z,11.07
2023-04-17T01:52:45.760Z,10.82
2023-04-17T01:55:12.422Z,10.77
2023-04-17T01:57:39.055Z,11.00
2023-04-17T02:00:10.620Z,11.38
2023-04-17T02:02:42.748Z,12.82
2023-04-17T02:05:09.573Z,11.95
2023-04-17T02:07:36.631Z,11.55
2023-04-17T02:10:03.329Z,9.95
2023-04-17T02:12:30.218Z,12.13
2023-04-17T02:15:01.058Z,12.23
2023-04-17T02:17:27.866Z,11.32
2023-04-17T02:19:54.477Z,10.95
2023-04-17T02:22:21.094Z,9.93
2023-04-17T02:24:47.681Z,11.07
2023-04-17T02:27:14.254Z,10.85
2023-04-17T02:29:43.342Z,9.40
2023-04-17T02:32:09.944Z,11.18
2023-04-17T02:34:36.883Z,8.88
2023-04-17T02:37:03.631Z,10.20
2023-04-17T02:39:31.678Z,10.75
2023-04-17T02:41:58.543Z,9.32
2023-04-17T02:44:25.446Z,9.75
2023-04-17T02:46:52.069Z,9.63
2023-04-17T02:49:18.797Z,10.20
2023-04-17T02:51:45.672Z,10.68
2023-04-17T02:54:12.288Z,11.13
2023-04-17T02:56:38.904Z,10.60
2023-04-17T02:59:05.496Z,11.00
2023-04-17T03:01:34.012Z,10.60
2023-04-17T03:04:01.016Z,10.85
2023-04-17T03:06:28.426Z,9.77
2023-04-17T03:08:55.817Z,10.85
2023-04-17T03:11:22.708Z,10.05
2023-04-17T03:13:49.339Z,9.13
2023-04-17T03:16:16.022Z,10.07
2023-04-17T03:18:45.487Z,9.65
2023-04-17T03:21:12.611Z,10.30
2023-04-17T03:23:39.203Z,10.98
2023-04-17T03:26:07.524Z,9.75
2023-04-17T03:28:34.191Z,11.65
2023-04-17T03:31:01.937Z,10.00
2023-04-17T03:33:31.069Z,9.10
2023-04-17T03:35:58.309Z,10.40
2023-04-17T03:38:24.903Z,11.20
2023-04-17T03:40:52.438Z,9.23
2023-04-17T03:43:19.916Z,11.32
2023-04-17T03:45:46.566Z,10.93
2023-04-17T03:48:13.185Z,10.90
2023-04-17T03:50:39.855Z,11.68
2023-04-17T03:53:06.464Z,12.02
2023-04-17T03:55:33.545Z,11.43
2023-04-17T03:58:00.367Z,11.40
2023-04-17T04:00:31.659Z,12.80
2023-04-17T04:03:03.146Z,12.23
2023-04-17T04:05:37.212Z,11.50
2023-04-17T04:08:04.568Z,10.85
2023-04-17T04:10:38.230Z,11.82
2023-04-17T04:13:05.288Z,11.82
2023-04-17T04:15:32.114Z,11.27
2023-04-17T04:18:03.188Z,10.25
2023-04-17T04:20:31.280Z,11.20
2023-04-17T04:23:10.260Z,11.65
2023-04-17T04:25:41.652Z,11.80
2023-04-17T04:28:19.920Z,12.32
2023-04-17T04:30:50.555Z,11.20
2023-04-17T04:33:22.608Z,11.27
2023-04-17T04:35:51.860Z,12.55
2023-04-17T04:38:18.639Z,11.70
2023-04-17T04:40:52.233Z,11.50
2023-04-17T04:43:22.170Z,14.23
2023-04-17T04:48:17.280Z,9.00
2023-04-17T04:50:45.072Z,11.70
2023-04-17T04:53:11.981Z,11.32
2023-04-17T04:55:44.268Z,11.20
2023-04-17T04:58:11.369Z,11.63
2023-04-17T05:00:39.227Z,10.07
2023-04-17T05:03:06.681Z,12.27
2023-04-17T05:05:33.680Z,13.02
2023-04-17T05:08:00.414Z,11.07
2023-04-17T05:10:31.008Z,10.75
2023-04-17T05:13:01.170Z,12.50
2023-04-17T05:15:28.233Z,11.65
2023-04-17T05:17:55.403Z,11.02
2023-04-17T05:20:26.094Z,10.18
2023-04-17T05:22:56.927Z,11.15
2023-04-17T05:25:24.367Z,11.70
2023-04-17T05:27:52.475Z,11.73
2023-04-17T05:30:19.127Z,11.75
2023-04-17T05:32:53.918Z,10.75
2023-04-17T05:35:43.618Z,12.47
2023-04-17T05:38:10.256Z,11.77
2023-04-17T05:40:36.860Z,11.05
2023-04-17T05:43:10.842Z,10.50
2023-04-17T05:45:38.565Z,11.38
2023-04-17T05:48:08.553Z,12.50
2023-04-17T05:50:37.313Z,11.10
2023-04-17T05:53:04.873Z,11.50
2023-04-17T05:55:35.918Z,12.82
2023-04-17T05:58:20.479Z,11.48
2023-04-17T06:00:49.715Z,12.77
2023-04-17T06:03:19.181Z,10.90
2023-04-17T06:05:48.575Z,10.55
2023-04-17T06:08:15.583Z,12.10
2023-04-17T06:10:42.170Z,12.95
2023-04-17T06:13:09.171Z,12.18
2023-04-17T06:15:36.514Z,11.10
2023-04-17T06:18:03.328Z,11.18
2023-04-17T06:20:29.988Z,13.90
2023-04-17T06:22:57.170Z,10.57
2023-04-17T06:25:23.817Z,11.23
2023-04-17T06:27:50.774Z,11.57
2023-04-17T06:30:17.417Z,12.43
2023-04-17T06:32:50.422Z,10.32
2023-04-17T06:35:19.256Z,11.85
2023-04-17T06:37:57.466Z,13.63
2023-04-17T06:40:24.051Z,12.45
2023-04-17T06:42:51.758Z,13.45
2023-04-17T06:45:21.228Z,11.35
2023-04-17T06:47:47.865Z,11.35
2023-04-17T06:50:17.039Z,12.13
2023-04-17T06:52:43.811Z,11.63
2023-04-17T06:55:10.837Z,10.85
2023-04-17T06:57:38.157Z,10.80
2023-04-17T07:00:05.452Z,13.27
2023-04-17T07:02:32.142Z,11.48
2023-04-17T07:04:59.032Z,11.23
2023-04-17T07:07:26.962Z,12.32
2023-04-17T07:09:53.604Z,11.70
2023-04-17T07:12:20.217Z,13.27
2023-04-17T07:14:46.975Z,12.23
2023-04-17T07:17:13.524Z,9.93
2023-04-17T07:19:40.526Z,12.27
2023-04-17T07:22:07.345Z,11.00
2023-04-17T07:24:35.044Z,9.98
2023-04-17T07:27:06.608Z,9.88
2023-04-17T07:31:59.745Z,10.18
2023-04-17T07:34:26.985Z,10.68
2023-04-17T07:36:53.536Z,9.40
2023-04-17T07:39:20.197Z,9.02
2023-04-17T07:41:46.996Z,9.38
2023-04-17T07:44:13.589Z,8.57
2023-04-17T07:46:41.317Z,7.95
2023-04-17T07:49:10.014Z,8.55
2023-04-17T07:51:41.005Z,9.03
2023-04-17T07:54:07.729Z,9.02
2023-04-17T07:56:34.620Z,9.98
2023-04-17T07:59:01.252Z,8.95
2023-04-17T08:01:27.994Z,8.90
2023-04-17T08:03:55.540Z,7.68
2023-04-17T08:06:22.600Z,7.30
2023-04-17T08:08:49.229Z,6.78
2023-04-17T08:11:15.831Z,7.68
2023-04-17T08:13:42.447Z,7.30
2023-04-17T08:16:09.882Z,7.32
2023-04-17T08:18:37.718Z,7.97
2023-04-17T08:21:04.797Z,6.35
2023-04-17T08:23:31.459Z,6.20
2023-04-17T08:25:58.305Z,6.03
2023-04-17T08:28:25.113Z,6.10
2023-04-17T08:30:51.893Z,5.32
2023-04-17T08:33:18.758Z,4.95
2023-04-17T08:35:45.636Z,4.22
2023-04-17T08:38:14.540Z,3.80
2023-04-17T08:40:43.002Z,5.07
2023-04-17T08:43:16.064Z,4.07
2023-04-17T08:45:53.520Z,4.15
2023-04-17T08:48:23.427Z,4.05
2023-04-17T08:50:51.542Z,3.58
2023-04-17T08:53:19.159Z,3.15
2023-04-17T08:55:47.018Z,3.40
2023-04-17T08:58:14.624Z,2.53
2023-04-17T09:00:43.311Z,3.60
2023-04-17T09:03:12.321Z,3.42
2023-04-17T09:05:42.565Z,2.83
2023-04-17T09:08:20.400Z,3.95
2023-04-17T09:10:50.611Z,3.22
2023-04-17T09:13:19.114Z,3.40
2023-04-17T09:15:47.296Z,3.42
2023-04-17T09:18:28.041Z,3.63
2023-04-17T09:20:54.678Z,4.30
2023-04-17T09:23:23.348Z,4.95
2023-04-17T09:26:12.307Z,4.90
2023-04-17T09:28:39.868Z,4.25
2023-04-17T09:31:24.990Z,4.30
2023-04-17T09:33:58.134Z,6.40
2023-04-17T09:36:24.755Z,5.95
2023-04-17T09:38:51.651Z,5.90
2023-04-17T09:41:23.123Z,10.05
2023-04-17T09:43:49.691Z,7.05
2023-04-17T09:46:35.702Z,7.55
2023-04-17T09:49:07.928Z,8.13
2023-04-17T09:51:34.571Z,5.82
2023-04-17T09:54:05.372Z,5.72
2023-04-17T09:56:33.799Z,5.97
2023-04-17T09:59:07.160Z,5.90
2023-04-17T10:01:36.082Z,7.93
2023-04-17T10:04:04.163Z,7.72
2023-04-17T10:06:32.302Z,7.40
2023-04-17T10:08:59.131Z,8.13
2023-04-17T10:11:30.026Z,7.00
2023-04-17T10:14:37.435Z,7.35
2023-04-17T10:17:23.717Z,6.85
2023-04-17T10:19:50.522Z,6.53
2023-04-17T10:22:20.093Z,7.50
2023-04-17T10:24:48.276Z,7.20
2023-04-17T10:27:27.028Z,5.30
2023-04-17T10:30:01.615Z,5.90
2023-04-17T10:32:29.635Z,6.88
2023-04-17T10:34:57.857Z,6.05
2023-04-17T10:37:52.392Z,6.07
2023-04-17T10:40:35.813Z,6.68
2023-04-17T10:43:14.874Z,5.38
2023-04-17T10:45:59.903Z,6.45
2023-04-17T10:48:28.677Z,5.72
2023-04-17T10:50:58.960Z,6.22
2023-04-17T10:53:39.571Z,5.85
2023-04-17T10:56:06.549Z,5.53
2023-04-17T10:58:33.206Z,7.55
2023-04-17T11:01:03.253Z,5.30
2023-04-17T11:03:31.009Z,8.07
2023-04-17T11:05:59.062Z,10.18
2023-04-17T11:08:25.649Z,9.73
2023-04-17T11:10:54.222Z,6.80
2023-04-17T11:13:20.850Z,6.35
2023-04-17T11:15:47.709Z,4.30
2023-04-17T11:18:14.342Z,4.57
2023-04-17T11:20:41.246Z,5.68
2023-04-17T11:23:07.866Z,4.97
2023-04-17T11:25:35.008Z,4.60
2023-04-17T11:28:06.335Z,3.90
2023-04-17T11:30:38.138Z,4.35
2023-04-17T11:33:06.120Z,5.10
2023-04-17T11:35:35.900Z,4.95
2023-04-17T11:38:14.243Z,4.07
2023-04-17T11:40:45.676Z,4.45
2023-04-17T11:43:12.975Z,4.20
2023-04-17T11:45:41.885Z,3.83
2023-04-17T11:48:12.816Z,4.10
2023-04-17T11:50:41.061Z,5.00
2023-04-17T11:53:07.799Z,4.97
2023-04-17T11:55:35.561Z,4.80
2023-04-17T11:58:05.570Z,4.82
2023-04-17T12:00:33.014Z,4.30
2023-04-17T12:03:03.783Z,4.07
2023-04-17T12:05:30.892Z,3.92
2023-04-17T12:08:02.115Z,3.90
2023-04-17T12:10:37.731Z,4.65
2023-04-17T12:13:04.683Z,3.97
2023-04-17T12:15:31.329Z,4.20
2023-04-17T12:17:57.917Z,3.58
2023-04-17T12:20:26.706Z,3.83
2023-04-17T12:22:53.487Z,4.72
2023-04-17T12:25:20.067Z,4.20
2023-04-17T12:27:49.182Z,3.42
2023-04-17T12:30:16.479Z,3.53
2023-04-17T12:32:48.501Z,3.58
2023-04-17T12:35:15.979Z,3.60
2023-04-17T12:37:48.257Z,3.90
2023-04-17T12:40:16.803Z,3.10
2023-04-17T12:42:49.117Z,3.22
2023-04-17T12:45:16.965Z,3.25
2023-04-17T12:47:44.073Z,3.30
2023-04-17T12:50:12.075Z,3.17
2023-04-17T12:52:39.946Z,4.22
2023-04-17T12:55:07.629Z,4.63
2023-04-17T12:57:37.524Z,4.30
2023-04-17T13:00:09.257Z,3.90
2023-04-17T13:02:36.266Z,4.10
2023-04-17T13:05:04.453Z,3.25
2023-04-17T13:07:31.035Z,4.03
2023-04-17T13:09:57.607Z,3.92
2023-04-17T13:12:24.473Z,2.92
2023-04-17T13:14:51.257Z,2.70
2023-04-17T13:17:17.877Z,3.58
2023-04-17T13:19:44.547Z,3.70
2023-04-17T13:22:11.118Z,3.80
2023-04-17T13:24:37.839Z,3.80
2023-04-17T13:27:04.517Z,3.30
2023-04-17T13:29:31.184Z,3.15
2023-04-17T13:31:57.793Z,2.33
2023-04-17T13:34:24.829Z,2.10
2023-04-17T13:36:51.460Z,2.70
2023-04-17T13:39:18.106Z,3.00
2023-04-17T13:41:44.689Z,2.60
2023-04-17T13:44:11.455Z,2.15
2023-04-17T13:46:38.076Z,3.08
2023-04-17T13:49:04.713Z,2.45
2023-04-17T13:51:31.772Z,2.72
2023-04-17T13:54:01.432Z,2.63
2023-04-17T13:56:28.906Z,2.53
2023-04-17T13:58:55.781Z,2.50
2023-04-17T14:01:22.428Z,2.80
2023-04-17T14:03:49.212Z,5.50
2023-04-17T14:06:17.809Z,4.38
2023-04-17T14:08:45.473Z,2.33
2023-04-17T14:11:13.285Z,4.13
2023-04-17T14:13:39.929Z,3.88
2023-04-17T14:16:06.755Z,5.70
2023-04-17T14:18:33.436Z,6.70
2023-04-17T14:21:00.275Z,3.60
2023-04-17T14:23:26.929Z,3.13
2023-04-17T14:25:53.538Z,4.20
2023-04-17T14:28:21.077Z,2.78
2023-04-17T14:30:48.225Z,4.35
2023-04-17T14:33:14.830Z,2.83
2023-04-17T14:35:41.404Z,3.00
2023-04-17T14:38:08.065Z,3.13
2023-04-17T14:40:34.662Z,2.78
2023-04-17T14:43:01.271Z,3.00
2023-04-17T14:45:29.720Z,2.40
2023-04-17T14:47:56.384Z,1.90
2023-04-17T14:50:23.004Z,2.10
2023-04-17T14:52:49.578Z,1.92
2023-04-17T14:55:16.175Z,2.45
2023-04-17T14:57:43.353Z,2.15
2023-04-17T15:00:10.316Z,2.08
2023-04-17T15:02:39.412Z,1.80
2023-04-17T15:05:06.823Z,3.00
2023-04-17T15:07:33.462Z,2.95
2023-04-17T15:10:00.303Z,2.85
2023-04-17T15:12:27.513Z,3.88
2023-04-17T15:14:55.203Z,3.70
2023-04-17T15:17:21.858Z,3.72
2023-04-17T15:19:48.900Z,4.35
2023-04-17T15:22:15.465Z,4.97
2023-04-17T15:24:42.119Z,4.05
2023-04-17T15:27:08.702Z,4.72
2023-04-17T15:29:35.371Z,4.22
2023-04-17T15:32:02.469Z,4.13
2023-04-17T15:34:29.061Z,3.80
2023-04-17T15:36:55.632Z,3.17
2023-04-17T15:39:23.238Z,2.10
2023-04-17T15:41:50.658Z,1.45
2023-04-17T15:44:17.241Z,1.90
2023-04-17T15:46:43.849Z,2.25
2023-04-17T15:49:10.737Z,3.60
2023-04-17T15:51:39.553Z,2.90
2023-04-17T15:54:08.535Z,4.07
2023-04-17T15:56:35.408Z,4.25
2023-04-17T15:59:01.957Z,4.13
2023-04-17T16:01:28.748Z,6.32
2023-04-17T16:03:55.642Z,5.88
2023-04-17T16:06:22.465Z,8.98
2023-04-17T16:08:49.025Z,6.25
2023-04-17T16:11:15.774Z,6.90
2023-04-17T16:13:42.633Z,5.38
2023-04-17T16:16:09.254Z,5.78
2023-04-17T16:18:36.439Z,5.85
2023-04-17T16:21:03.291Z,6.82
2023-04-17T16:23:30.046Z,6.75
2023-04-17T16:25:56.615Z,9.45
2023-04-17T16:28:24.197Z,6.70
2023-04-17T16:30:50.754Z,5.65
2023-04-17T16:33:17.342Z,6.03
2023-04-17T16:35:43.916Z,5.63
2023-04-17T16:38:10.501Z,5.35
2023-04-17T16:40:37.052Z,6.20
2023-04-17T16:43:03.640Z,5.65
2023-04-17T16:45:30.556Z,6.63
2023-04-17T16:47:57.260Z,7.10
2023-04-17T16:50:25.576Z,8.55
2023-04-17T16:52:52.388Z,8.68
2023-04-17T16:55:18.954Z,8.68
2023-04-17T16:57:47.632Z,8.57
2023-04-17T17:00:14.753Z,8.65
2023-04-17T17:02:41.439Z,7.05
2023-04-17T17:05:08.566Z,6.38
2023-04-17T17:07:35.205Z,6.50
2023-04-17T17:10:01.754Z,8.38
2023-04-17T17:12:28.356Z,9.68
2023-04-17T17:14:54.963Z,6.78
2023-04-17T17:17:21.631Z,7.30
2023-04-17T17:19:48.197Z,6.90
2023-04-17T17:22:14.764Z,6.18
2023-04-17T17:24:41.312Z,6.35
2023-04-17T17:27:07.893Z,7.13
2023-04-17T17:29:34.443Z,5.90
2023-04-17T17:32:01.080Z,6.95
2023-04-17T17:34:27.714Z,7.10
2023-04-17T17:36:54.277Z,6.50
2023-04-17T17:39:22.067Z,6.13
2023-04-17T17:41:48.952Z,5.25
2023-04-17T17:44:15.718Z,5.43
2023-04-17T17:46:42.397Z,5.07
2023-04-17T17:49:09.193Z,5.57
2023-04-17T17:51:35.773Z,5.40
2023-04-17T17:54:02.365Z,5.13
2023-04-17T17:56:28.951Z,5.88
2023-04-17T17:58:55.694Z,4.50
2023-04-17T18:01:24.721Z,6.72
2023-04-17T18:03:51.782Z,4.65
2023-04-17T18:06:18.467Z,4.72
2023-04-17T18:08:45.064Z,5.50
2023-04-17T18:11:13.592Z,5.28
2023-04-17T18:13:40.201Z,4.88
2023-04-17T18:16:07.070Z,4.88
2023-04-17T18:18:33.699Z,4.93
2023-04-17T18:21:00.330Z,5.35
2023-04-17T18:23:26.975Z,5.65
2023-04-17T18:26:00.477Z,4.50
2023-04-17T18:28:27.225Z,3.78
2023-04-17T18:30:53.892Z,4.05
2023-04-17T18:33:20.542Z,3.17
2023-04-17T18:35:47.156Z,3.55
2023-04-17T18:38:14.721Z,3.33
2023-04-17T18:40:41.300Z,3.88
2023-04-17T18:43:09.963Z,3.83
2023-04-17T18:45:36.826Z,4.00
2023-04-17T18:48:03.559Z,3.88
2023-04-17T18:50:30.525Z,3.00
2023-04-17T18:52:57.160Z,5.40
2023-04-17T18:55:23.746Z,4.10
2023-04-17T18:57:50.324Z,3.42
2023-04-17T19:00:16.924Z,3.55
2023-04-17T19:02:43.704Z,2.80
2023-04-17T19:05:10.438Z,3.15
2023-04-17T19:07:37.125Z,4.03
2023-04-17T19:10:03.865Z,4.78
2023-04-17T19:12:30.679Z,5.78
2023-04-17T19:14:57.320Z,4.78
2023-04-17T19:17:25.414Z,6.10
2023-04-17T19:19:52.021Z,4.72
2023-04-17T19:22:18.639Z,5.57
2023-04-17T19:24:49.651Z,5.38
2023-04-17T19:27:16.825Z,6.60
2023-04-17T19:29:43.410Z,4.93
2023-04-17T19:32:10.825Z,5.60
2023-04-17T19:34:37.746Z,5.18
2023-04-17T19:37:04.734Z,6.82
2023-04-17T19:39:31.512Z,9.57
2023-04-17T19:41:58.117Z,9.00
2023-04-17T19:44:26.602Z,8.73
2023-04-17T19:46:55.225Z,8.23
2023-04-17T19:49:21.824Z,8.98
2023-04-17T19:51:48.557Z,10.45
2023-04-17T19:54:15.845Z,8.60
2023-04-17T19:56:42.447Z,13.57
2023-04-17T19:59:12.497Z,10.63
2023-04-17T20:01:40.450Z,11.50
2023-04-17T20:04:08.949Z,9.23
2023-04-17T20:06:35.998Z,9.07
2023-04-17T20:09:03.675Z,10.40
2023-04-17T20:11:30.469Z,8.38
2023-04-17T20:13:57.051Z,9.00
2023-04-17T20:16:24.080Z,6.75
2023-04-17T20:18:51.957Z,6.15
2023-04-17T20:21:18.829Z,7.25
2023-04-17T20:23:46.837Z,8.00
2023-04-17T20:26:13.459Z,6.38
2023-04-17T20:28:40.425Z,6.82
2023-04-17T20:31:07.573Z,7.53
2023-04-17T20:33:34.236Z,5.93
2023-04-17T20:36:01.895Z,5.80
2023-04-17T20:38:28.580Z,5.60
2023-04-17T20:40:55.216Z,5.47
2023-04-17T20:43:21.835Z,6.60
2023-04-17T20:45:49.214Z,5.22
2023-04-17T20:48:16.318Z,7.20
2023-04-17T20:50:43.044Z,6.32
2023-04-17T20:53:09.640Z,6.32
2023-04-17T20:55:37.856Z,4.85
2023-04-17T20:58:04.478Z,5.88
2023-04-17T21:00:31.033Z,6.50
2023-04-17T21:02:57.655Z,4.68
2023-04-17T21:05:24.367Z,5.55
2023-04-17T21:07:51.686Z,6.07
2023-04-17T21:10:19.940Z,5.93
2023-04-17T21:12:46.989Z,6.22
2023-04-17T21:15:13.545Z,7.22
2023-04-17T21:17:40.260Z,6.78
2023-04-17T21:20:07.521Z,5.47
2023-04-17T21:22:34.153Z,5.18
2023-04-17T21:25:00.776Z,5.60
2023-04-17T21:27:27.621Z,5.78
2023-04-17T21:29:54.174Z,6.25
2023-04-17T21:32:20.828Z,5.13
2023-04-17T21:34:47.414Z,5.55
2023-04-17T21:37:14.152Z,5.97
2023-04-17T21:39:40.711Z,5.05
2023-04-17T21:42:07.290Z,5.05
2023-04-17T21:44:33.931Z,4.85
2023-04-17T21:47:00.523Z,5.15
2023-04-17T21:49:27.513Z,5.43
2023-04-17T21:51:54.796Z,4.03
2023-04-17T21:54:21.880Z,5.10
2023-04-17T21:56:48.851Z,4.68
2023-04-17T21:59:15.481Z,5.07
2023-04-17T22:01:42.320Z,4.60
2023-04-17T22:04:09.054Z,3.50
2023-04-17T22:06:36.930Z,4.72
2023-04-17T22:09:04.615Z,5.05
2023-04-17T22:11:31.266Z,4.72
2023-04-17T22:13:57.971Z,4.43
2023-04-17T22:16:24.640Z,5.30
2023-04-17T22:18:51.303Z,5.43
2023-04-17T22:21:17.917Z,5.05
2023-04-17T22:23:44.824Z,5.20
2023-04-17T22:26:11.597Z,4.45
2023-04-17T22:28:38.352Z,5.43
2023-04-17T22:31:04.933Z,5.32
2023-04-17T22:33:31.599Z,5.32
2023-04-17T22:35:58.157Z,5.90
2023-04-17T22:38:24.723Z,5.03
2023-04-17T22:40:51.287Z,5.93
2023-04-17T22:43:17.864Z,6.05
2023-04-17T22:45:44.697Z,6.93
2023-04-17T22:48:11.263Z,5.90
2023-04-17T22:50:38.113Z,6.45
2023-04-17T22:53:05.647Z,5.57
2023-04-17T22:55:32.398Z,6.93
2023-04-17T22:58:01.356Z,6.78
2023-04-17T23:00:27.946Z,7.07
2023-04-17T23:02:54.681Z,6.85
2023-04-17T23:05:21.293Z,6.65
2023-04-17T23:07:47.984Z,6.65
2023-04-17T23:10:14.751Z,7.15
2023-04-17T23:12:41.445Z,8.32
2023-04-17T23:15:08.871Z,8.82
2023-04-17T23:17:35.569Z,8.30
2023-04-17T23:20:02.292Z,7.63
2023-04-17T23:22:29.029Z,7.75
2023-04-17T23:24:56.616Z,7.93
2023-04-17T23:27:23.284Z,9.15
2023-04-17T23:29:49.856Z,7.88
2023-04-17T23:32:16.457Z,8.43
2023-04-17T23:34:43.496Z,8.57
2023-04-17T23:37:10.130Z,9.38
2023-04-17T23:39:36.699Z,9.35
2023-04-17T23:42:07.215Z,9.82
2023-04-17T23:44:34.545Z,10.10
2023-04-17T23:47:01.938Z,9.20
2023-04-17T23:49:28.577Z,10.05
2023-04-17T23:51:55.200Z,10.48
2023-04-17T23:54:21.749Z,9.40
2023-04-17T23:56:48.365Z,10.60
2023-04-17T23:59:14.921Z,10.57
